sensor_id;sensor_type;location;lat;lon;timestamp;P1;durP1;ratioP1;P2;durP2;ratioP2
53281;SDS011;39167;52.794;6.892;2022-12-29T00:01:36;5.60;;;4.25;;
53281;SDS011;39167;52.794;6.892;2022-12-29T00:04:03;6.47;;;4.43;;
53281;SDS011;39167;52.794;6.892;2022-12-29T00:06:30;6.75;;;4.25;;
53281;SDS011;39167;52.794;6.892;2022-12-29T00:08:56;7.43;;;4.22;;
53281;SDS011;39167;52.794;6.892;2022-12-29T00:11:23;6.65;;;4.45;;
53281;SDS011;39167;52.794;6.892;2022-12-29T00:13:50;7.13;;;4.47;;
53281;SDS011;39167;52.794;6.892;2022-12-29T00:16:35;5.70;;;4.25;;
53281;SDS011;39167;52.794;6.892;2022-12-29T00:19:02;7.03;;;4.38;;
53281;SDS011;39167;52.794;6.892;2022-12-29T00:21:29;6.13;;;3.92;;
53281;SDS011;39167;52.794;6.892;2022-12-29T00:27:07;6.57;;;4.63;;
53281;SDS011;39167;52.794;6.892;2022-12-29T00:29:54;7.72;;;4.88;;
53281;SDS011;39167;52.794;6.892;2022-12-29T00:32:39;8.75;;;4.60;;
53281;SDS011;39167;52.794;6.892;2022-12-29T00:35:25;6.82;;;4.18;;
53281;SDS011;39167;52.794;6.892;2022-12-29T00:37:52;8.43;;;4.68;;
53281;SDS011;39167;52.794;6.892;2022-12-29T00:40:46;6.53;;;4.40;;
53281;SDS011;39167;52.794;6.892;2022-12-29T00:43:30;8.43;;;4.60;;
53281;SDS011;39167;52.794;6.892;2022-12-29T00:46:15;8.32;;;4.93;;
53281;SDS011;39167;52.794;6.892;2022-12-29T00:48:40;6.80;;;4.85;;
53281;SDS011;39167;52.794;6.892;2022-12-29T00:51:25;6.75;;;4.45;;
53281;SDS011;39167;52.794;6.892;2022-12-29T00:53:50;5.28;;;3.67;;
53281;SDS011;39167;52.794;6.892;2022-12-29T00:56:16;5.93;;;3.70;;
53281;SDS011;39167;52.794;6.892;2022-12-29T00:58:42;5.03;;;3.45;;
53281;SDS011;39167;52.794;6.892;2022-12-29T01:01:08;6.90;;;3.90;;
53281;SDS011;39167;52.794;6.892;2022-12-29T01:03:34;5.68;;;3.15;;
53281;SDS011;39167;52.794;6.892;2022-12-29T01:06:03;4.95;;;3.58;;
53281;SDS011;39167;52.794;6.892;2022-12-29T01:08:30;5.28;;;3.60;;
53281;SDS011;39167;52.794;6.892;2022-12-29T01:13:29;5.18;;;3.70;;
53281;SDS011;39167;52.794;6.892;2022-12-29T01:15:55;4.85;;;3.00;;
53281;SDS011;39167;52.794;6.892;2022-12-29T01:18:21;5.50;;;3.55;;
53281;SDS011;39167;52.794;6.892;2022-12-29T01:20:48;6.00;;;3.75;;
53281;SDS011;39167;52.794;6.892;2022-12-29T01:23:13;4.95;;;3.22;;
53281;SDS011;39167;52.794;6.892;2022-12-29T01:25:39;5.10;;;3.15;;
53281;SDS011;39167;52.794;6.892;2022-12-29T01:28:05;4.95;;;3.45;;
53281;SDS011;39167;52.794;6.892;2022-12-29T01:30:33;5.03;;;3.35;;
53281;SDS011;39167;52.794;6.892;2022-12-29T01:33:00;5.65;;;3.00;;
53281;SDS011;39167;52.794;6.892;2022-12-29T01:35:26;4.93;;;2.72;;
53281;SDS011;39167;52.794;6.892;2022-12-29T01:37:52;5.82;;;3.30;;
53281;SDS011;39167;52.794;6.892;2022-12-29T01:40:18;4.53;;;2.80;;
53281;SDS011;39167;52.794;6.892;2022-12-29T01:42:44;4.00;;;2.90;;
53281;SDS011;39167;52.794;6.892;2022-12-29T01:47:43;5.35;;;2.80;;
53281;SDS011;39167;52.794;6.892;2022-12-29T01:50:17;3.95;;;2.58;;
53281;SDS011;39167;52.794;6.892;2022-12-29T01:52:56;4.35;;;2.72;;
53281;SDS011;39167;52.794;6.892;2022-12-29T01:55:29;7.82;;;3.10;;
53281;SDS011;39167;52.794;6.892;2022-12-29T01:57:59;4.72;;;2.60;;
53281;SDS011;39167;52.794;6.892;2022-12-29T02:00:29;7.00;;;2.80;;
53281;SDS011;39167;52.794;6.892;2022-12-29T02:02:54;4.88;;;2.78;;
53281;SDS011;39167;52.794;6.892;2022-12-29T02:05:33;5.57;;;2.67;;
53281;SDS011;39167;52.794;6.892;2022-12-29T02:08:12;4.45;;;2.53;;
53281;SDS011;39167;52.794;6.892;2022-12-29T02:10:39;5.10;;;2.85;;
53281;SDS011;39167;52.794;6.892;2022-12-29T02:13:06;4.70;;;2.60;;
53281;SDS011;39167;52.794;6.892;2022-12-29T02:18:27;5.05;;;2.47;;
53281;SDS011;39167;52.794;6.892;2022-12-29T02:21:04;3.95;;;2.40;;
53281;SDS011;39167;52.794;6.892;2022-12-29T02:29:40;5.07;;;2.45;;
53281;SDS011;39167;52.794;6.892;2022-12-29T02:32:36;3.95;;;2.38;;
53281;SDS011;39167;52.794;6.892;2022-12-29T02:37:39;3.13;;;1.90;;
53281;SDS011;39167;52.794;6.892;2022-12-29T02:45:21;5.57;;;2.00;;
53281;SDS011;39167;52.794;6.892;2022-12-29T02:50:53;4.75;;;1.90;;
53281;SDS011;39167;52.794;6.892;2022-12-29T02:53:25;5.97;;;2.25;;
53281;SDS011;39167;52.794;6.892;2022-12-29T02:56:11;3.42;;;2.00;;
53281;SDS011;39167;52.794;6.892;2022-12-29T02:58:37;4.28;;;2.30;;
53281;SDS011;39167;52.794;6.892;2022-12-29T03:09:21;3.03;;;1.70;;
53281;SDS011;39167;52.794;6.892;2022-12-29T03:12:07;3.17;;;1.67;;
53281;SDS011;39167;52.794;6.892;2022-12-29T03:14:52;3.50;;;1.85;;
53281;SDS011;39167;52.794;6.892;2022-12-29T03:18:10;2.95;;;2.08;;
53281;SDS011;39167;52.794;6.892;2022-12-29T03:20:58;2.92;;;1.92;;
53281;SDS011;39167;52.794;6.892;2022-12-29T03:23:34;2.95;;;2.05;;
53281;SDS011;39167;52.794;6.892;2022-12-29T03:26:03;3.72;;;2.10;;
53281;SDS011;39167;52.794;6.892;2022-12-29T03:28:35;2.97;;;2.00;;
53281;SDS011;39167;52.794;6.892;2022-12-29T03:31:04;4.32;;;2.03;;
53281;SDS011;39167;52.794;6.892;2022-12-29T03:33:33;4.22;;;2.13;;
53281;SDS011;39167;52.794;6.892;2022-12-29T03:36:02;5.10;;;2.28;;
53281;SDS011;39167;52.794;6.892;2022-12-29T03:38:34;2.75;;;1.73;;
53281;SDS011;39167;52.794;6.892;2022-12-29T03:41:06;3.42;;;1.75;;
53281;SDS011;39167;52.794;6.892;2022-12-29T03:43:35;4.07;;;1.93;;
53281;SDS011;39167;52.794;6.892;2022-12-29T03:46:02;6.07;;;2.08;;
53281;SDS011;39167;52.794;6.892;2022-12-29T03:48:27;4.60;;;1.60;;
53281;SDS011;39167;52.794;6.892;2022-12-29T03:50:53;4.28;;;1.77;;
53281;SDS011;39167;52.794;6.892;2022-12-29T03:53:19;3.20;;;1.67;;
53281;SDS011;39167;52.794;6.892;2022-12-29T03:55:44;2.72;;;1.80;;
53281;SDS011;39167;52.794;6.892;2022-12-29T03:58:10;3.95;;;1.98;;
53281;SDS011;39167;52.794;6.892;2022-12-29T04:00:36;3.78;;;1.73;;
53281;SDS011;39167;52.794;6.892;2022-12-29T04:03:02;3.45;;;1.65;;
53281;SDS011;39167;52.794;6.892;2022-12-29T04:05:27;5.38;;;1.50;;
53281;SDS011;39167;52.794;6.892;2022-12-29T04:07:53;2.90;;;1.50;;
53281;SDS011;39167;52.794;6.892;2022-12-29T04:10:19;3.17;;;1.42;;
53281;SDS011;39167;52.794;6.892;2022-12-29T04:12:44;5.78;;;1.50;;
53281;SDS011;39167;52.794;6.892;2022-12-29T04:15:11;5.97;;;1.73;;
53281;SDS011;39167;52.794;6.892;2022-12-29T04:17:37;4.93;;;1.13;;
53281;SDS011;39167;52.794;6.892;2022-12-29T04:20:03;2.70;;;1.20;;
53281;SDS011;39167;52.794;6.892;2022-12-29T04:22:48;4.68;;;0.98;;
53281;SDS011;39167;52.794;6.892;2022-12-29T04:25:14;7.72;;;1.73;;
53281;SDS011;39167;52.794;6.892;2022-12-29T04:27:40;2.53;;;1.15;;
53281;SDS011;39167;52.794;6.892;2022-12-29T04:30:06;1.67;;;1.13;;
53281;SDS011;39167;52.794;6.892;2022-12-29T04:32:32;2.95;;;1.10;;
53281;SDS011;39167;52.794;6.892;2022-12-29T04:34:58;7.35;;;1.40;;
53281;SDS011;39167;52.794;6.892;2022-12-29T04:37:24;5.85;;;1.00;;
53281;SDS011;39167;52.794;6.892;2022-12-29T04:39:50;5.28;;;1.60;;
53281;SDS011;39167;52.794;6.892;2022-12-29T04:42:15;5.22;;;1.05;;
53281;SDS011;39167;52.794;6.892;2022-12-29T04:44:41;4.80;;;0.80;;
53281;SDS011;39167;52.794;6.892;2022-12-29T04:47:06;2.15;;;0.95;;
53281;SDS011;39167;52.794;6.892;2022-12-29T04:49:32;3.55;;;1.10;;
53281;SDS011;39167;52.794;6.892;2022-12-29T04:51:58;2.25;;;0.90;;
53281;SDS011;39167;52.794;6.892;2022-12-29T04:54:23;6.55;;;1.10;;
53281;SDS011;39167;52.794;6.892;2022-12-29T04:56:49;4.28;;;1.10;;
53281;SDS011;39167;52.794;6.892;2022-12-29T04:59:15;1.75;;;1.05;;
53281;SDS011;39167;52.794;6.892;2022-12-29T05:01:40;3.58;;;1.02;;
53281;SDS011;39167;52.794;6.892;2022-12-29T05:04:07;5.03;;;1.00;;
53281;SDS011;39167;52.794;6.892;2022-12-29T05:06:33;7.22;;;1.00;;
53281;SDS011;39167;52.794;6.892;2022-12-29T05:08:58;1.73;;;0.90;;
53281;SDS011;39167;52.794;6.892;2022-12-29T05:11:24;2.58;;;0.90;;
53281;SDS011;39167;52.794;6.892;2022-12-29T05:13:49;5.20;;;1.27;;
53281;SDS011;39167;52.794;6.892;2022-12-29T05:16:15;2.17;;;1.08;;
53281;SDS011;39167;52.794;6.892;2022-12-29T05:18:41;5.30;;;1.30;;
53281;SDS011;39167;52.794;6.892;2022-12-29T05:21:06;3.97;;;1.10;;
53281;SDS011;39167;52.794;6.892;2022-12-29T05:23:32;3.83;;;1.00;;
53281;SDS011;39167;52.794;6.892;2022-12-29T05:25:58;4.95;;;1.33;;
53281;SDS011;39167;52.794;6.892;2022-12-29T05:28:23;2.38;;;1.10;;
53281;SDS011;39167;52.794;6.892;2022-12-29T05:30:49;3.55;;;1.45;;
53281;SDS011;39167;52.794;6.892;2022-12-29T05:33:16;3.30;;;1.15;;
53281;SDS011;39167;52.794;6.892;2022-12-29T05:35:43;5.85;;;1.30;;
53281;SDS011;39167;52.794;6.892;2022-12-29T05:38:09;4.38;;;1.20;;
53281;SDS011;39167;52.794;6.892;2022-12-29T05:40:35;5.70;;;1.30;;
53281;SDS011;39167;52.794;6.892;2022-12-29T05:43:01;4.15;;;1.00;;
53281;SDS011;39167;52.794;6.892;2022-12-29T05:45:26;9.02;;;1.60;;
53281;SDS011;39167;52.794;6.892;2022-12-29T05:47:52;4.55;;;1.10;;
53281;SDS011;39167;52.794;6.892;2022-12-29T05:50:18;3.25;;;1.27;;
53281;SDS011;39167;52.794;6.892;2022-12-29T05:52:44;2.05;;;0.90;;
53281;SDS011;39167;52.794;6.892;2022-12-29T05:55:10;4.88;;;1.45;;
53281;SDS011;39167;52.794;6.892;2022-12-29T05:57:36;4.53;;;1.40;;
53281;SDS011;39167;52.794;6.892;2022-12-29T06:00:05;4.13;;;1.25;;
53281;SDS011;39167;52.794;6.892;2022-12-29T06:02:31;4.45;;;1.17;;
53281;SDS011;39167;52.794;6.892;2022-12-29T06:04:57;5.57;;;1.50;;
53281;SDS011;39167;52.794;6.892;2022-12-29T06:07:23;4.65;;;1.20;;
53281;SDS011;39167;52.794;6.892;2022-12-29T06:09:48;4.90;;;1.15;;
53281;SDS011;39167;52.794;6.892;2022-12-29T06:12:14;5.10;;;1.30;;
53281;SDS011;39167;52.794;6.892;2022-12-29T06:14:40;3.83;;;1.20;;
53281;SDS011;39167;52.794;6.892;2022-12-29T06:17:05;4.97;;;1.15;;
53281;SDS011;39167;52.794;6.892;2022-12-29T06:19:31;4.07;;;1.20;;
53281;SDS011;39167;52.794;6.892;2022-12-29T06:21:57;10.32;;;1.20;;
53281;SDS011;39167;52.794;6.892;2022-12-29T06:24:22;12.48;;;1.60;;
53281;SDS011;39167;52.794;6.892;2022-12-29T06:26:48;7.53;;;1.48;;
53281;SDS011;39167;52.794;6.892;2022-12-29T06:29:14;19.05;;;2.25;;
53281;SDS011;39167;52.794;6.892;2022-12-29T06:31:43;5.50;;;1.15;;
53281;SDS011;39167;52.794;6.892;2022-12-29T06:34:11;5.00;;;1.27;;
53281;SDS011;39167;52.794;6.892;2022-12-29T06:36:37;7.47;;;1.63;;
53281;SDS011;39167;52.794;6.892;2022-12-29T06:39:04;4.57;;;1.02;;
53281;SDS011;39167;52.794;6.892;2022-12-29T06:41:30;3.85;;;1.08;;
53281;SDS011;39167;52.794;6.892;2022-12-29T06:43:56;5.40;;;1.20;;
53281;SDS011;39167;52.794;6.892;2022-12-29T06:46:22;7.45;;;1.20;;
53281;SDS011;39167;52.794;6.892;2022-12-29T06:48:48;10.85;;;1.83;;
53281;SDS011;39167;52.794;6.892;2022-12-29T06:51:14;5.28;;;1.10;;
53281;SDS011;39167;52.794;6.892;2022-12-29T06:53:40;5.20;;;1.33;;
53281;SDS011;39167;52.794;6.892;2022-12-29T06:56:05;6.85;;;1.88;;
53281;SDS011;39167;52.794;6.892;2022-12-29T06:58:31;6.75;;;1.63;;
53281;SDS011;39167;52.794;6.892;2022-12-29T07:00:57;5.80;;;1.27;;
53281;SDS011;39167;52.794;6.892;2022-12-29T07:03:23;7.32;;;1.25;;
53281;SDS011;39167;52.794;6.892;2022-12-29T07:05:49;9.00;;;2.15;;
53281;SDS011;39167;52.794;6.892;2022-12-29T07:08:14;12.57;;;1.67;;
53281;SDS011;39167;52.794;6.892;2022-12-29T07:10:40;9.20;;;1.58;;
53281;SDS011;39167;52.794;6.892;2022-12-29T07:13:06;12.70;;;2.05;;
53281;SDS011;39167;52.794;6.892;2022-12-29T07:15:33;8.77;;;1.70;;
53281;SDS011;39167;52.794;6.892;2022-12-29T07:17:59;6.35;;;1.55;;
53281;SDS011;39167;52.794;6.892;2022-12-29T07:20:25;8.20;;;1.63;;
53281;SDS011;39167;52.794;6.892;2022-12-29T07:22:51;8.75;;;2.05;;
53281;SDS011;39167;52.794;6.892;2022-12-29T07:25:16;11.00;;;1.85;;
53281;SDS011;39167;52.794;6.892;2022-12-29T07:27:42;16.27;;;2.28;;
53281;SDS011;39167;52.794;6.892;2022-12-29T07:30:08;10.32;;;2.08;;
53281;SDS011;39167;52.794;6.892;2022-12-29T07:32:34;11.38;;;1.80;;
53281;SDS011;39167;52.794;6.892;2022-12-29T07:35:00;12.93;;;2.00;;
53281;SDS011;39167;52.794;6.892;2022-12-29T07:37:26;5.13;;;1.52;;
53281;SDS011;39167;52.794;6.892;2022-12-29T07:39:52;12.30;;;2.83;;
53281;SDS011;39167;52.794;6.892;2022-12-29T07:42:18;13.65;;;1.90;;
53281;SDS011;39167;52.794;6.892;2022-12-29T07:44:44;8.07;;;1.73;;
53281;SDS011;39167;52.794;6.892;2022-12-29T07:47:09;8.00;;;1.60;;
53281;SDS011;39167;52.794;6.892;2022-12-29T07:49:35;10.25;;;1.88;;
53281;SDS011;39167;52.794;6.892;2022-12-29T07:52:00;8.43;;;1.58;;
53281;SDS011;39167;52.794;6.892;2022-12-29T07:54:26;9.45;;;1.83;;
53281;SDS011;39167;52.794;6.892;2022-12-29T07:56:52;12.02;;;2.08;;
53281;SDS011;39167;52.794;6.892;2022-12-29T07:59:18;4.95;;;1.40;;
53281;SDS011;39167;52.794;6.892;2022-12-29T08:01:43;6.32;;;1.48;;
53281;SDS011;39167;52.794;6.892;2022-12-29T08:04:09;9.55;;;1.63;;
53281;SDS011;39167;52.794;6.892;2022-12-29T08:06:35;8.18;;;1.60;;
53281;SDS011;39167;52.794;6.892;2022-12-29T08:09:00;7.72;;;1.63;;
53281;SDS011;39167;52.794;6.892;2022-12-29T08:11:26;11.38;;;1.85;;
53281;SDS011;39167;52.794;6.892;2022-12-29T08:13:52;10.43;;;1.65;;
53281;SDS011;39167;52.794;6.892;2022-12-29T08:16:18;9.15;;;1.60;;
53281;SDS011;39167;52.794;6.892;2022-12-29T08:18:44;5.68;;;1.55;;
53281;SDS011;39167;52.794;6.892;2022-12-29T08:21:10;8.80;;;1.67;;
53281;SDS011;39167;52.794;6.892;2022-12-29T08:23:35;11.25;;;2.17;;
53281;SDS011;39167;52.794;6.892;2022-12-29T08:26:03;9.50;;;2.50;;
53281;SDS011;39167;52.794;6.892;2022-12-29T08:28:30;8.10;;;2.45;;
53281;SDS011;39167;52.794;6.892;2022-12-29T08:31:00;7.38;;;1.70;;
53281;SDS011;39167;52.794;6.892;2022-12-29T08:33:27;12.07;;;2.27;;
53281;SDS011;39167;52.794;6.892;2022-12-29T08:36:00;12.30;;;1.60;;
53281;SDS011;39167;52.794;6.892;2022-12-29T08:38:31;12.90;;;2.17;;
53281;SDS011;39167;52.794;6.892;2022-12-29T08:40:57;10.82;;;2.22;;
53281;SDS011;39167;52.794;6.892;2022-12-29T08:43:24;11.30;;;1.80;;
53281;SDS011;39167;52.794;6.892;2022-12-29T08:45:50;7.43;;;1.85;;
53281;SDS011;39167;52.794;6.892;2022-12-29T08:48:16;9.00;;;1.45;;
53281;SDS011;39167;52.794;6.892;2022-12-29T08:50:47;7.17;;;1.80;;
53281;SDS011;39167;52.794;6.892;2022-12-29T08:53:14;6.38;;;1.35;;
53281;SDS011;39167;52.794;6.892;2022-12-29T08:55:40;8.05;;;1.40;;
53281;SDS011;39167;52.794;6.892;2022-12-29T08:58:06;8.43;;;1.58;;
53281;SDS011;39167;52.794;6.892;2022-12-29T09:00:32;6.00;;;1.30;;
53281;SDS011;39167;52.794;6.892;2022-12-29T09:02:57;5.82;;;1.13;;
53281;SDS011;39167;52.794;6.892;2022-12-29T09:05:23;10.30;;;1.33;;
53281;SDS011;39167;52.794;6.892;2022-12-29T09:07:49;5.60;;;1.38;;
53281;SDS011;39167;52.794;6.892;2022-12-29T09:10:15;6.50;;;1.35;;
53281;SDS011;39167;52.794;6.892;2022-12-29T09:12:40;7.82;;;1.88;;
53281;SDS011;39167;52.794;6.892;2022-12-29T09:15:06;7.97;;;1.40;;
53281;SDS011;39167;52.794;6.892;2022-12-29T09:17:33;5.97;;;1.52;;
53281;SDS011;39167;52.794;6.892;2022-12-29T09:20:08;9.00;;;1.45;;
53281;SDS011;39167;52.794;6.892;2022-12-29T09:22:35;6.22;;;1.40;;
53281;SDS011;39167;52.794;6.892;2022-12-29T09:25:01;7.40;;;1.58;;
53281;SDS011;39167;52.794;6.892;2022-12-29T09:27:27;5.72;;;1.52;;
53281;SDS011;39167;52.794;6.892;2022-12-29T09:29:53;10.20;;;1.63;;
53281;SDS011;39167;52.794;6.892;2022-12-29T09:32:18;7.30;;;1.77;;
53281;SDS011;39167;52.794;6.892;2022-12-29T09:34:44;6.43;;;1.77;;
53281;SDS011;39167;52.794;6.892;2022-12-29T09:37:10;8.48;;;1.85;;
53281;SDS011;39167;52.794;6.892;2022-12-29T09:39:35;6.78;;;1.50;;
53281;SDS011;39167;52.794;6.892;2022-12-29T09:42:18;8.00;;;1.70;;
53281;SDS011;39167;52.794;6.892;2022-12-29T09:47:40;7.22;;;1.70;;
53281;SDS011;39167;52.794;6.892;2022-12-29T09:55:38;10.52;;;2.03;;
53281;SDS011;39167;52.794;6.892;2022-12-29T09:58:14;10.90;;;1.75;;
53281;SDS011;39167;52.794;6.892;2022-12-29T10:01:04;22.85;;;1.88;;
53281;SDS011;39167;52.794;6.892;2022-12-29T10:03:49;8.68;;;2.13;;
53281;SDS011;39167;52.794;6.892;2022-12-29T10:06:23;9.02;;;2.08;;
53281;SDS011;39167;52.794;6.892;2022-12-29T10:09:04;7.22;;;1.63;;
53281;SDS011;39167;52.794;6.892;2022-12-29T10:14:49;7.53;;;2.40;;
53281;SDS011;39167;52.794;6.892;2022-12-29T10:17:44;11.05;;;2.05;;
53281;SDS011;39167;52.794;6.892;2022-12-29T10:20:31;11.15;;;1.70;;
53281;SDS011;39167;52.794;6.892;2022-12-29T10:23:30;10.73;;;1.63;;
53281;SDS011;39167;52.794;6.892;2022-12-29T10:26:12;11.05;;;1.60;;
53281;SDS011;39167;52.794;6.892;2022-12-29T10:28:48;14.90;;;1.98;;
53281;SDS011;39167;52.794;6.892;2022-12-29T10:31:24;9.85;;;1.65;;
53281;SDS011;39167;52.794;6.892;2022-12-29T10:34:21;10.70;;;1.80;;
53281;SDS011;39167;52.794;6.892;2022-12-29T10:36:57;7.78;;;1.67;;
53281;SDS011;39167;52.794;6.892;2022-12-29T10:39:33;8.10;;;1.48;;
53281;SDS011;39167;52.794;6.892;2022-12-29T10:42:09;10.05;;;1.70;;
53281;SDS011;39167;52.794;6.892;2022-12-29T10:45:02;8.85;;;1.70;;
53281;SDS011;39167;52.794;6.892;2022-12-29T10:47:33;8.48;;;1.92;;
53281;SDS011;39167;52.794;6.892;2022-12-29T10:50:02;7.75;;;1.60;;
53281;SDS011;39167;52.794;6.892;2022-12-29T10:52:29;4.78;;;1.45;;
53281;SDS011;39167;52.794;6.892;2022-12-29T10:54:59;9.30;;;1.80;;
53281;SDS011;39167;52.794;6.892;2022-12-29T10:57:27;11.65;;;2.35;;
53281;SDS011;39167;52.794;6.892;2022-12-29T11:02:26;10.70;;;1.77;;
53281;SDS011;39167;52.794;6.892;2022-12-29T11:05:06;9.43;;;1.58;;
53281;SDS011;39167;52.794;6.892;2022-12-29T11:07:41;10.00;;;1.60;;
53281;SDS011;39167;52.794;6.892;2022-12-29T11:10:17;8.55;;;1.77;;
53281;SDS011;39167;52.794;6.892;2022-12-29T11:12:57;7.63;;;1.73;;
53281;SDS011;39167;52.794;6.892;2022-12-29T11:15:28;10.57;;;1.83;;
53281;SDS011;39167;52.794;6.892;2022-12-29T11:18:04;13.52;;;2.22;;
53281;SDS011;39167;52.794;6.892;2022-12-29T11:20:41;9.75;;;1.70;;
53281;SDS011;39167;52.794;6.892;2022-12-29T11:29:39;12.02;;;1.90;;
53281;SDS011;39167;52.794;6.892;2022-12-29T11:31:48;10.02;;;2.30;;
53281;SDS011;39167;52.794;6.892;2022-12-29T11:36:48;6.78;;;1.50;;
53281;SDS011;39167;52.794;6.892;2022-12-29T11:39:26;9.10;;;1.80;;
53281;SDS011;39167;52.794;6.892;2022-12-29T11:41:56;6.60;;;1.70;;
53281;SDS011;39167;52.794;6.892;2022-12-29T11:44:22;8.50;;;1.90;;
53281;SDS011;39167;52.794;6.892;2022-12-29T11:46:50;9.35;;;2.08;;
53281;SDS011;39167;52.794;6.892;2022-12-29T11:49:21;13.70;;;4.60;;
53281;SDS011;39167;52.794;6.892;2022-12-29T11:51:50;14.23;;;2.55;;
53281;SDS011;39167;52.794;6.892;2022-12-29T11:54:40;8.32;;;1.60;;
53281;SDS011;39167;52.794;6.892;2022-12-29T11:57:14;10.77;;;2.00;;
53281;SDS011;39167;52.794;6.892;2022-12-29T11:59:49;6.30;;;1.58;;
53281;SDS011;39167;52.794;6.892;2022-12-29T12:04:44;8.32;;;1.98;;
53281;SDS011;39167;52.794;6.892;2022-12-29T12:07:24;12.38;;;2.30;;
53281;SDS011;39167;52.794;6.892;2022-12-29T12:13:23;8.75;;;2.10;;
53281;SDS011;39167;52.794;6.892;2022-12-29T12:16:15;11.48;;;2.65;;
53281;SDS011;39167;52.794;6.892;2022-12-29T12:18:45;12.27;;;2.40;;
53281;SDS011;39167;52.794;6.892;2022-12-29T12:21:38;11.93;;;2.38;;
53281;SDS011;39167;52.794;6.892;2022-12-29T12:29:25;14.43;;;2.47;;
53281;SDS011;39167;52.794;6.892;2022-12-29T12:34:51;8.68;;;2.20;;
53281;SDS011;39167;52.794;6.892;2022-12-29T12:57:02;9.88;;;2.38;;
53281;SDS011;39167;52.794;6.892;2022-12-29T13:00:07;8.25;;;1.42;;
53281;SDS011;39167;52.794;6.892;2022-12-29T13:05:46;9.48;;;1.50;;
53281;SDS011;39167;52.794;6.892;2022-12-29T13:08:29;10.20;;;2.15;;
53281;SDS011;39167;52.794;6.892;2022-12-29T13:13:57;12.85;;;2.63;;
53281;SDS011;39167;52.794;6.892;2022-12-29T13:22:22;20.83;;;3.35;;
53281;SDS011;39167;52.794;6.892;2022-12-29T13:30:57;15.25;;;2.72;;
53281;SDS011;39167;52.794;6.892;2022-12-29T13:36:24;19.33;;;2.97;;
53281;SDS011;39167;52.794;6.892;2022-12-29T13:39:14;14.90;;;2.95;;
53281;SDS011;39167;52.794;6.892;2022-12-29T13:42:12;15.60;;;3.28;;
53281;SDS011;39167;52.794;6.892;2022-12-29T13:44:48;14.65;;;3.47;;
53281;SDS011;39167;52.794;6.892;2022-12-29T13:50:03;17.70;;;2.60;;
53281;SDS011;39167;52.794;6.892;2022-12-29T14:00:39;16.80;;;2.65;;
53281;SDS011;39167;52.794;6.892;2022-12-29T14:08:42;15.80;;;2.38;;
53281;SDS011;39167;52.794;6.892;2022-12-29T14:11:09;14.13;;;3.10;;
53281;SDS011;39167;52.794;6.892;2022-12-29T14:13:39;16.25;;;2.67;;
53281;SDS011;39167;52.794;6.892;2022-12-29T14:16:08;13.73;;;2.90;;
53281;SDS011;39167;52.794;6.892;2022-12-29T14:18:49;14.68;;;2.53;;
53281;SDS011;39167;52.794;6.892;2022-12-29T14:23:42;14.77;;;2.60;;
53281;SDS011;39167;52.794;6.892;2022-12-29T14:28:57;13.82;;;2.80;;
53281;SDS011;39167;52.794;6.892;2022-12-29T14:31:46;17.15;;;2.92;;
53281;SDS011;39167;52.794;6.892;2022-12-29T14:36:41;18.58;;;3.05;;
53281;SDS011;39167;52.794;6.892;2022-12-29T14:39:37;15.63;;;2.97;;
53281;SDS011;39167;52.794;6.892;2022-12-29T14:44:53;16.13;;;2.90;;
53281;SDS011;39167;52.794;6.892;2022-12-29T14:52:48;16.08;;;2.78;;
53281;SDS011;39167;52.794;6.892;2022-12-29T14:55:36;15.82;;;3.47;;
53281;SDS011;39167;52.794;6.892;2022-12-29T14:58:06;9.10;;;1.90;;
53281;SDS011;39167;52.794;6.892;2022-12-29T15:00:44;15.40;;;2.83;;
53281;SDS011;39167;52.794;6.892;2022-12-29T15:05:49;13.32;;;2.35;;
53281;SDS011;39167;52.794;6.892;2022-12-29T15:08:22;15.30;;;2.63;;
53281;SDS011;39167;52.794;6.892;2022-12-29T15:10:55;16.35;;;2.35;;
53281;SDS011;39167;52.794;6.892;2022-12-29T15:13:36;13.32;;;2.30;;
53281;SDS011;39167;52.794;6.892;2022-12-29T15:16:03;15.48;;;3.60;;
53281;SDS011;39167;52.794;6.892;2022-12-29T15:18:30;9.38;;;2.80;;
53281;SDS011;39167;52.794;6.892;2022-12-29T15:20:58;13.23;;;2.40;;
53281;SDS011;39167;52.794;6.892;2022-12-29T15:23:24;15.90;;;3.08;;
53281;SDS011;39167;52.794;6.892;2022-12-29T15:28:21;11.50;;;3.25;;
53281;SDS011;39167;52.794;6.892;2022-12-29T15:30:54;15.57;;;3.53;;
53281;SDS011;39167;52.794;6.892;2022-12-29T15:33:28;12.00;;;4.10;;
53281;SDS011;39167;52.794;6.892;2022-12-29T15:35:54;17.02;;;3.53;;
53281;SDS011;39167;52.794;6.892;2022-12-29T15:38:26;18.45;;;4.28;;
53281;SDS011;39167;52.794;6.892;2022-12-29T15:40:54;13.80;;;3.83;;
53281;SDS011;39167;52.794;6.892;2022-12-29T15:43:56;13.38;;;4.68;;
53281;SDS011;39167;52.794;6.892;2022-12-29T15:46:29;18.73;;;5.65;;
53281;SDS011;39167;52.794;6.892;2022-12-29T15:48:56;16.15;;;3.53;;
53281;SDS011;39167;52.794;6.892;2022-12-29T15:51:28;9.20;;;3.88;;
53281;SDS011;39167;52.794;6.892;2022-12-29T15:53:57;17.25;;;3.80;;
53281;SDS011;39167;52.794;6.892;2022-12-29T15:56:23;13.10;;;4.10;;
53281;SDS011;39167;52.794;6.892;2022-12-29T15:58:50;14.75;;;5.53;;
53281;SDS011;39167;52.794;6.892;2022-12-29T16:03:50;12.60;;;4.97;;
53281;SDS011;39167;52.794;6.892;2022-12-29T16:06:33;15.25;;;4.93;;
53281;SDS011;39167;52.794;6.892;2022-12-29T16:09:04;13.05;;;3.28;;
53281;SDS011;39167;52.794;6.892;2022-12-29T16:12:03;12.40;;;2.70;;
53281;SDS011;39167;52.794;6.892;2022-12-29T16:17:09;10.45;;;3.00;;
53281;SDS011;39167;52.794;6.892;2022-12-29T16:19:39;12.10;;;3.40;;
53281;SDS011;39167;52.794;6.892;2022-12-29T16:22:10;11.18;;;3.00;;
53281;SDS011;39167;52.794;6.892;2022-12-29T16:24:42;10.55;;;2.90;;
53281;SDS011;39167;52.794;6.892;2022-12-29T16:29:44;16.20;;;3.80;;
53281;SDS011;39167;52.794;6.892;2022-12-29T16:34:51;11.52;;;3.10;;
53281;SDS011;39167;52.794;6.892;2022-12-29T16:37:38;17.05;;;3.53;;
53281;SDS011;39167;52.794;6.892;2022-12-29T16:42:53;10.45;;;3.15;;
53281;SDS011;39167;52.794;6.892;2022-12-29T16:48:09;14.20;;;3.03;;
53281;SDS011;39167;52.794;6.892;2022-12-29T16:50:43;10.60;;;3.60;;
53281;SDS011;39167;52.794;6.892;2022-12-29T16:53:20;9.43;;;2.65;;
53281;SDS011;39167;52.794;6.892;2022-12-29T16:55:47;6.20;;;2.08;;
53281;SDS011;39167;52.794;6.892;2022-12-29T16:58:32;7.47;;;2.20;;
53281;SDS011;39167;52.794;6.892;2022-12-29T17:01:00;8.88;;;2.13;;
53281;SDS011;39167;52.794;6.892;2022-12-29T17:03:34;5.22;;;2.13;;
53281;SDS011;39167;52.794;6.892;2022-12-29T17:06:03;3.65;;;1.55;;
53281;SDS011;39167;52.794;6.892;2022-12-29T17:08:37;8.27;;;1.70;;
53281;SDS011;39167;52.794;6.892;2022-12-29T17:11:08;5.45;;;1.80;;
53281;SDS011;39167;52.794;6.892;2022-12-29T17:14:19;7.53;;;2.58;;
53281;SDS011;39167;52.794;6.892;2022-12-29T17:17:04;9.52;;;2.92;;
53281;SDS011;39167;52.794;6.892;2022-12-29T17:19:36;23.50;;;14.88;;
53281;SDS011;39167;52.794;6.892;2022-12-29T17:22:08;8.40;;;2.63;;
53281;SDS011;39167;52.794;6.892;2022-12-29T17:24:36;13.43;;;3.00;;
53281;SDS011;39167;52.794;6.892;2022-12-29T17:27:02;8.35;;;3.33;;
53281;SDS011;39167;52.794;6.892;2022-12-29T17:31:57;9.88;;;3.75;;
53281;SDS011;39167;52.794;6.892;2022-12-29T17:34:24;10.55;;;4.05;;
53281;SDS011;39167;52.794;6.892;2022-12-29T17:36:50;8.48;;;3.50;;
53281;SDS011;39167;52.794;6.892;2022-12-29T17:39:16;15.45;;;5.07;;
53281;SDS011;39167;52.794;6.892;2022-12-29T17:41:41;9.88;;;3.75;;
53281;SDS011;39167;52.794;6.892;2022-12-29T17:44:08;12.20;;;4.85;;
53281;SDS011;39167;52.794;6.892;2022-12-29T17:46:41;12.32;;;4.53;;
53281;SDS011;39167;52.794;6.892;2022-12-29T17:49:11;10.75;;;4.40;;
53281;SDS011;39167;52.794;6.892;2022-12-29T17:51:38;10.15;;;4.90;;
53281;SDS011;39167;52.794;6.892;2022-12-29T17:54:05;10.45;;;4.32;;